Time;durP1;ratioP1;P1;durP2;ratioP2;P2;SDS_P1;SDS_P2;PMS_P1;PMS_P2;Temp;Humidity;BMP_temperature;BMP_pressure;BME280_temperature;BME280_humidity;BME280_pressure;Samples;Min_cycle;Max_cycle;Signal;HPM_P1;HPM_P2
2022/08/14 00:01:37;;;;;;;34.78;6.87;;;;;;;19.56;71.38;99754.16;5549689;32;34064;-69
2022/08/14 00:04:39;;;;;;;26.73;6.15;;;;;;;19.54;71.68;99753.59;5550112;32;34712;-69
2022/08/14 00:07:48;;;;;;;19.70;6.70;;;;;;;19.51;71.84;99757.56;5550249;32;34031;-69
2022/08/14 00:10:52;;;;;;;28.15;6.62;;;;;;;19.49;72.21;99751.63;5549370;32;34138;-68
2022/08/14 00:13:56;;;;;;;24.42;7.25;;;;;;;19.47;72.50;99751.03;5550090;32;34183;-69
2022/08/14 00:16:59;;;;;;;35.88;7.40;;;;;;;19.44;73.19;99758.78;5550151;32;34291;-69
2022/08/14 00:20:04;;;;;;;32.53;7.28;;;;;;;19.40;73.22;99758.41;5549414;32;32519;-68
2022/08/14 00:23:10;;;;;;;38.08;7.53;;;;;;;19.37;73.63;99758.88;5549961;32;35284;-68
2022/08/14 00:26:18;;;;;;;29.63;7.28;;;;;;;19.37;74.17;99755.38;5548930;32;34037;-69
2022/08/14 00:29:24;;;;;;;38.17;8.82;;;;;;;19.47;73.74;99750.22;5549845;32;34701;-69
2022/08/14 00:32:28;;;;;;;20.58;6.93;;;;;;;19.39;74.10;99748.72;5549758;32;34338;-69
2022/08/14 00:35:52;;;;;;;27.50;6.37;;;;;;;19.33;74.49;99749.66;5549220;32;33967;-68
2022/08/14 00:39:15;;;;;;;25.20;6.55;;;;;;;19.29;74.73;99737.75;5549718;32;33910;-69
2022/08/14 00:42:21;;;;;;;21.23;6.55;;;;;;;19.21;75.22;99730.09;5549535;32;34629;-68
2022/08/14 00:45:44;;;;;;;44.40;7.05;;;;;;;19.16;75.66;99738.03;5549583;32;34781;-68
2022/08/14 00:48:54;;;;;;;27.58;7.70;;;;;;;19.16;75.59;99740.75;5549874;32;33985;-68
2022/08/14 00:51:59;;;;;;;25.98;6.68;;;;;;;19.22;76.52;99738.97;5549572;32;33996;-69
2022/08/14 00:55:05;;;;;;;35.50;7.62;;;;;;;19.35;76.33;99735.97;5549418;32;34626;-68
2022/08/14 01:01:35;;;;;;;33.90;7.37;;;;;;;19.33;76.98;99733.53;5549407;32;33947;-69
2022/08/14 01:04:38;;;;;;;41.35;7.72;;;;;;;19.24;78.56;99745.72;5549223;32;33866;-69
2022/08/14 01:07:58;;;;;;;47.78;8.35;;;;;;;19.23;78.95;99741.41;5549310;32;34377;-69
2022/08/14 01:11:04;;;;;;;34.20;7.60;;;;;;;19.23;77.84;99738.72;5549051;32;33995;-68
2022/08/14 01:14:06;;;;;;;41.78;7.85;;;;;;;19.29;76.54;99736.94;5549025;32;34121;-69
2022/08/14 01:21:05;;;;;;;28.65;7.40;;;;;;;19.17;76.33;99739.66;5549189;32;34759;-69
2022/08/14 01:24:09;;;;;;;34.10;7.85;;;;;;;19.10;76.81;99739.81;5548855;32;33966;-69
2022/08/14 01:27:18;;;;;;;23.58;7.43;;;;;;;19.03;77.22;99755.25;5548985;32;33881;-68
2022/08/14 01:30:23;;;;;;;18.70;7.40;;;;;;;19.03;77.97;99746.38;5548691;32;34480;-69
2022/08/14 01:33:28;;;;;;;19.52;7.90;;;;;;;19.02;80.61;99755.50;5548840;32;34012;-68
2022/08/14 01:36:36;;;;;;;13.82;7.20;;;;;;;19.17;80.75;99750.41;5548676;32;34013;-69
2022/08/14 01:39:41;;;;;;;10.98;7.12;;;;;;;19.06;81.35;99743.22;5550121;32;34566;-68
2022/08/14 01:42:44;;;;;;;13.88;7.10;;;;;;;19.03;82.32;99741.81;5551612;32;34630;-69
2022/08/14 01:45:51;;;;;;;17.35;7.40;;;;;;;19.05;82.84;99749.66;5551508;32;34081;-69
2022/08/14 01:49:11;;;;;;;16.20;7.22;;;;;;;19.06;83.20;99748.59;5551530;32;34672;-69
2022/08/14 01:52:16;;;;;;;13.48;6.85;;;;;;;19.06;83.44;99753.97;5550459;32;34139;-69
2022/08/14 01:55:39;;;;;;;12.95;7.20;;;;;;;18.99;83.03;99746.03;5551650;32;33879;-68
2022/08/14 01:58:45;;;;;;;11.18;7.18;;;;;;;18.99;83.67;99753.28;5551464;32;34660;-69
2022/08/14 02:02:06;;;;;;;22.80;7.43;;;;;;;19.02;83.34;99752.81;5551480;32;34694;-69
2022/08/14 02:05:29;;;;;;;22.50;7.35;;;;;;;18.93;84.13;99746.16;5550413;32;32882;-69
2022/08/14 02:08:40;;;;;;;14.87;7.05;;;;;;;18.81;84.65;99743.50;5551490;32;33942;-69
2022/08/14 02:11:56;;;;;;;17.40;6.50;;;;;;;18.77;84.08;99749.59;5551348;32;34976;-69
2022/08/14 02:14:59;;;;;;;18.55;7.20;;;;;;;18.79;84.52;99739.41;5551402;32;34184;-69
2022/08/14 02:18:04;;;;;;;12.82;6.85;;;;;;;18.71;84.92;99745.97;5551482;32;34206;-69
2022/08/14 02:21:11;;;;;;;15.75;6.97;;;;;;;18.60;85.22;99755.69;5550736;32;32493;-69
2022/08/14 02:24:14;;;;;;;13.60;7.15;;;;;;;18.57;85.83;99749.97;5551147;32;34175;-69
2022/08/14 02:27:40;;;;;;;10.63;6.68;;;;;;;18.52;86.12;99753.31;5551183;32;33903;-69
2022/08/14 02:31:07;;;;;;;11.98;7.10;;;;;;;18.46;86.87;99754.25;5543690;32;236049;-69
2022/08/14 02:34:30;;;;;;;11.93;6.82;;;;;;;18.42;87.81;99752.28;5550393;32;35226;-69
2022/08/14 02:37:39;;;;;;;11.93;6.65;;;;;;;18.38;87.72;99745.75;5551172;32;34370;-69
2022/08/14 02:40:50;;;;;;;9.68;6.55;;;;;;;18.34;87.29;99750.78;5551127;32;34594;-69
2022/08/14 02:43:53;;;;;;;11.35;6.78;;;;;;;18.42;87.35;99757.66;5550967;32;34550;-69
2022/08/14 02:47:02;;;;;;;16.27;7.30;;;;;;;18.52;86.49;99753.31;5550494;32;32689;-68
2022/08/14 02:50:10;;;;;;;13.55;7.85;;;;;;;18.53;84.58;99759.53;5550873;32;34853;-69
2022/08/14 02:53:14;;;;;;;18.62;7.87;;;;;;;18.41;84.32;99758.69;5550970;32;34200;-69
2022/08/14 02:56:18;;;;;;;18.10;7.43;;;;;;;18.33;84.24;99757.19;5550898;32;34015;-69
2022/08/14 02:59:41;;;;;;;18.50;7.40;;;;;;;18.31;84.11;99755.75;5550891;32;34373;-69
2022/08/14 03:02:45;;;;;;;15.18;7.22;;;;;;;18.32;83.29;99752.03;5550938;32;34630;-69
2022/08/14 03:06:00;;;;;;;15.30;7.12;;;;;;;18.31;83.52;99751.22;5550730;32;34514;-69
2022/08/14 03:09:04;;;;;;;22.45;7.60;;;;;;;18.24;83.48;99750.53;5550776;32;34623;-69
2022/08/14 03:12:07;;;;;;;18.35;7.28;;;;;;;18.17;83.66;99750.63;5550864;32;35254;-69
2022/08/14 03:15:13;;;;;;;14.93;7.37;;;;;;;18.07;84.03;99749.56;5551065;32;34673;-69
2022/08/14 03:18:23;;;;;;;17.67;7.37;;;;;;;17.96;84.41;99758.44;5550764;32;35234;-69
2022/08/14 03:21:38;;;;;;;15.05;7.35;;;;;;;17.91;84.54;99758.31;5550581;32;34580;-69
2022/08/14 03:24:42;;;;;;;17.10;7.40;;;;;;;17.98;84.50;99767.88;5550978;32;34512;-69
2022/08/14 03:27:44;;;;;;;16.55;8.02;;;;;;;17.98;84.92;99767.06;5550538;32;34658;-69
2022/08/14 03:30:59;;;;;;;17.45;7.97;;;;;;;17.94;85.22;99764.03;5549836;32;33991;-69
2022/08/14 03:34:03;;;;;;;17.83;7.65;;;;;;;17.89;85.62;99773.81;5550043;32;32323;-69
2022/08/14 03:37:11;;;;;;;28.70;7.65;;;;;;;17.77;86.19;99766.53;5550574;32;33964;-69
2022/08/14 03:40:39;;;;;;;15.65;7.65;;;;;;;17.72;86.76;99763.72;5549958;32;33971;-69
2022/08/14 03:43:54;;;;;;;19.73;8.05;;;;;;;17.68;87.32;99770.59;5550904;32;33875;-69
2022/08/14 03:47:03;;;;;;;14.50;7.30;;;;;;;17.67;87.90;99770.84;5550646;32;34209;-69
2022/08/14 03:50:09;;;;;;;17.83;8.05;;;;;;;17.62;88.29;99773.41;5550512;32;34403;-69
2022/08/14 03:53:14;;;;;;;11.50;7.22;;;;;;;17.59;88.73;99763.91;5550334;32;34764;-69
2022/08/14 03:56:17;;;;;;;10.90;7.45;;;;;;;17.64;88.99;99771.28;5549633;32;33959;-69
2022/08/14 03:59:23;;;;;;;12.48;7.72;;;;;;;17.64;89.30;99766.75;5550320;32;34010;-69
2022/08/14 04:02:29;;;;;;;12.37;8.07;;;;;;;17.68;90.06;99772.47;5549664;32;34733;-68
2022/08/14 04:05:37;;;;;;;17.05;8.18;;;;;;;17.85;89.47;99770.78;5550204;32;35253;-69
2022/08/14 04:08:51;;;;;;;11.27;7.90;;;;;;;17.94;88.92;99769.38;5550374;32;34101;-69
2022/08/14 04:11:54;;;;;;;16.33;7.95;;;;;;;18.05;88.75;99779.34;5550162;32;34074;-69
2022/08/14 04:14:59;;;;;;;14.05;8.13;;;;;;;18.05;88.13;99770.47;5550242;32;33869;-69
2022/08/14 04:18:07;;;;;;;16.73;7.45;;;;;;;18.01;88.58;99774.66;5550200;32;33886;-68
2022/08/14 04:21:15;;;;;;;10.52;7.25;;;;;;;18.03;88.54;99773.37;5550051;32;33887;-69
2022/08/14 04:24:18;;;;;;;14.87;7.95;;;;;;;18.05;88.82;99775.84;5549862;32;34802;-69
2022/08/14 04:27:22;;;;;;;17.65;7.50;;;;;;;18.17;88.50;99771.28;5549869;32;34401;-70
2022/08/14 04:30:29;;;;;;;15.20;7.60;;;;;;;18.51;86.58;99770.50;5549814;32;34581;-70
2022/08/14 04:33:35;;;;;;;13.70;7.25;;;;;;;18.40;87.13;99776.66;5549825;32;33889;-69
2022/08/14 04:43:34;;;;;;;16.02;8.07;;;;;;;18.45;87.55;99773.28;5549877;32;34594;-69
2022/08/14 04:43:39;;;;;;;14.32;8.43;;;;;;;18.40;87.81;99778.53;5549746;32;33951;-69
2022/08/14 04:48:11;;;;;;;11.60;7.37;;;;;;;18.39;87.84;99788.47;5549624;32;34585;-69
2022/08/14 04:50:05;;;;;;;15.30;7.37;;;;;;;18.54;87.49;99793.44;5549487;32;34232;-70
2022/08/14 04:53:12;;;;;;;11.25;7.22;;;;;;;18.53;85.88;99784.56;5549469;32;35235;-69
2022/08/14 04:56:21;;;;;;;13.32;7.40;;;;;;;18.64;84.64;99786.38;5549314;32;34894;-70
2022/08/14 04:59:35;;;;;;;9.57;7.07;;;;;;;18.74;84.22;99790.34;5548262;32;33813;-69
2022/08/14 05:02:44;;;;;;;15.55;7.18;;;;;;;18.92;83.70;99785.69;5549328;32;33897;-69
2022/08/14 05:05:54;;;;;;;12.65;6.97;;;;;;;19.06;83.37;99788.91;5549071;32;34655;-69
2022/08/14 05:08:57;;;;;;;9.85;6.53;;;;;;;19.20;83.78;99792.16;5549194;32;33946;-69
2022/08/14 05:12:02;;;;;;;11.82;6.53;;;;;;;19.20;80.19;99789.47;5549219;32;33961;-69
2022/08/14 05:15:28;;;;;;;9.27;6.37;;;;;;;19.29;79.82;99793.41;5551066;32;34372;-69
2022/08/14 05:18:36;;;;;;;12.23;6.70;;;;;;;19.43;78.88;99800.97;5551833;32;33951;-69
2022/08/14 05:22:00;;;;;;;10.82;6.55;;;;;;;19.48;78.67;99801.09;5552168;32;33963;-70
2022/08/14 05:25:20;;;;;;;10.25;6.35;;;;;;;19.66;78.13;99791.19;5550748;32;32837;-69
2022/08/14 05:28:25;;;;;;;10.00;6.55;;;;;;;19.66;77.58;99796.56;5550575;32;32978;-69
2022/08/14 05:31:28;;;;;;;7.75;6.12;;;;;;;19.86;76.75;99794.25;5551553;32;35200;-69
2022/08/14 05:34:41;;;;;;;14.85;6.18;;;;;;;19.88;76.32;99792.16;5550895;32;32739;-69
2022/08/14 05:37:48;;;;;;;8.93;6.60;;;;;;;20.03;75.91;99794.28;5551581;32;33998;-70
2022/08/14 05:40:51;;;;;;;10.10;6.60;;;;;;;20.09;75.45;99796.81;5551418;32;33988;-69
2022/08/14 05:43:54;;;;;;;10.10;6.90;;;;;;;20.14;75.80;99796.09;5551490;32;33896;-69
2022/08/14 05:46:58;;;;;;;11.23;6.70;;;;;;;20.18;76.63;99808.00;5551395;32;34029;-69
2022/08/14 05:50:01;;;;;;;9.98;6.82;;;;;;;20.24;76.70;99802.44;5550508;32;32744;-69
2022/08/14 05:53:04;;;;;;;12.55;7.53;;;;;;;20.30;76.08;99806.91;5551326;32;34015;-70
2022/08/14 05:56:12;;;;;;;12.02;7.12;;;;;;;20.37;75.89;99801.34;5550764;32;33972;-69
2022/08/14 05:59:15;;;;;;;10.43;6.65;;;;;;;20.65;74.48;99795.03;5551214;32;34259;-69
2022/08/14 06:02:18;;;;;;;8.82;6.78;;;;;;;20.87;73.83;99798.56;5550748;32;34109;-69
2022/08/14 06:05:24;;;;;;;10.77;7.90;;;;;;;20.91;73.33;99793.53;5551052;32;34642;-69
2022/08/14 06:08:31;;;;;;;9.23;6.93;;;;;;;21.10;72.43;99798.38;5551295;32;35316;-69
2022/08/14 06:11:42;;;;;;;10.68;7.12;;;;;;;21.36;70.75;99799.50;5551287;32;33872;-69
2022/08/14 06:14:44;;;;;;;9.95;6.95;;;;;;;21.58;70.22;99794.91;5551535;32;34722;-70
2022/08/14 06:17:50;;;;;;;9.77;7.20;;;;;;;21.62;69.40;99787.13;5551075;32;34125;-70
2022/08/14 06:21:02;;;;;;;7.95;6.40;;;;;;;21.75;69.16;99792.09;5550342;32;34063;-69
2022/08/14 06:24:07;;;;;;;9.68;6.50;;;;;;;21.76;69.04;99784.81;5550801;32;34006;-69
2022/08/14 06:27:19;;;;;;;7.82;6.10;;;;;;;21.94;68.44;99785.28;5550904;32;33938;-70
2022/08/14 06:30:26;;;;;;;8.40;6.03;;;;;;;22.06;67.53;99794.06;5550769;32;34114;-70
2022/08/14 06:33:43;;;;;;;10.10;6.37;;;;;;;22.21;67.53;99790.66;5550530;32;33933;-69
2022/08/14 06:37:06;;;;;;;8.20;5.72;;;;;;;22.35;67.28;99789.16;5550290;32;34257;-70
2022/08/14 06:40:13;;;;;;;7.80;4.93;;;;;;;22.44;66.69;99790.31;5551067;32;34693;-69
2022/08/14 06:43:29;;;;;;;7.50;4.93;;;;;;;22.49;65.48;99774.13;5550218;32;32399;-70
2022/08/14 06:46:34;;;;;;;7.45;4.95;;;;;;;22.72;65.76;99782.94;5549631;32;32604;-70
2022/08/14 06:49:38;;;;;;;7.22;4.32;;;;;;;23.10;64.17;99776.34;5550925;32;34035;-70
2022/08/14 06:52:58;;;;;;;5.87;4.30;;;;;;;23.30;62.83;99782.66;5550143;32;33938;-69
2022/08/14 06:56:00;;;;;;;6.05;3.95;;;;;;;23.66;61.67;99777.41;5550337;32;34007;-70
2022/08/14 06:59:05;;;;;;;6.85;4.60;;;;;;;23.78;59.92;99775.22;5550725;32;34222;-69
2022/08/14 07:05:45;;;;;;;6.30;4.70;;;;;;;24.39;58.45;99769.88;5550162;32;34084;-69
2022/08/14 07:09:00;;;;;;;5.90;4.37;;;;;;;24.67;57.32;99766.56;5550614;32;34659;-69
2022/08/14 07:12:03;;;;;;;5.87;4.55;;;;;;;25.32;55.22;99759.31;5549890;32;34023;-69
2022/08/14 07:15:06;;;;;;;4.80;3.90;;;;;;;25.46;55.33;99757.59;5550453;32;33876;-70
2022/08/14 07:18:10;;;;;;;5.90;4.03;;;;;;;26.19;53.17;99760.34;5550666;32;33956;-69
2022/08/14 07:21:14;;;;;;;7.10;3.72;;;;;;;26.68;51.82;99757.44;5536807;32;32796;-70
2022/08/14 07:24:17;;;;;;;6.47;4.25;;;;;;;27.69;48.95;99771.75;5549940;32;32725;-70
2022/08/14 07:27:27;;;;;;;6.50;3.62;;;;;;;28.45;46.76;99766.69;5550394;32;34653;-70
2022/08/14 07:30:38;;;;;;;5.30;3.97;;;;;;;28.51;47.00;99768.22;5550604;32;34044;-70
2022/08/14 07:33:47;;;;;;;6.47;4.05;;;;;;;29.34;44.62;99758.13;5550439;32;34063;-71
2022/08/14 07:36:54;;;;;;;5.20;4.15;;;;;;;29.50;44.13;99770.38;5549020;32;34256;-69
2022/08/14 07:40:04;;;;;;;5.35;3.90;;;;;;;28.47;46.01;99767.19;5549743;32;33415;-70
2022/08/14 07:43:08;;;;;;;4.93;4.07;;;;;;;30.00;42.26;99756.66;5550723;32;34621;-69
2022/08/14 07:46:16;;;;;;;5.97;3.60;;;;;;;30.09;42.65;99765.72;5550277;32;33914;-70
2022/08/14 07:49:33;;;;;;;5.90;3.72;;;;;;;30.08;41.78;99770.38;5550545;32;35367;-71
2022/08/14 07:52:37;;;;;;;5.28;4.10;;;;;;;31.05;39.58;99766.75;5549684;32;33026;-70
2022/08/14 07:55:41;;;;;;;8.68;4.45;;;;;;;31.63;38.67;99768.31;5550372;32;34371;-70
2022/08/14 07:58:44;;;;;;;5.45;3.62;;;;;;;31.68;38.61;99759.94;5550315;32;33953;-70
2022/08/14 08:01:55;;;;;;;4.20;3.50;;;;;;;31.51;38.79;99768.12;5549299;32;33203;-69
2022/08/14 08:05:01;;;;;;;5.47;3.67;;;;;;;32.48;36.90;99755.66;5550123;32;34848;-69
2022/08/14 08:08:06;;;;;;;6.05;3.75;;;;;;;31.71;37.94;99759.28;5550075;32;34007;-70
2022/08/14 08:11:32;;;;;;;5.28;3.83;;;;;;;32.47;36.98;99761.47;5550056;32;34082;-70
2022/08/14 08:14:40;;;;;;;4.90;3.58;;;;;;;31.88;37.89;99751.06;5550135;32;34322;-70
2022/08/14 08:18:06;;;;;;;4.32;3.70;;;;;;;33.53;34.77;99749.31;5549490;32;34046;-70
2022/08/14 08:21:22;;;;;;;4.28;3.62;;;;;;;33.30;34.82;99754.34;5549028;32;32697;-71
2022/08/14 08:24:28;;;;;;;4.65;3.47;;;;;;;34.84;32.64;99754.03;5549887;32;35280;-70
2022/08/14 08:27:31;;;;;;;5.53;3.85;;;;;;;35.05;32.35;99756.69;5549781;32;34577;-71
2022/08/14 08:30:38;;;;;;;6.00;3.65;;;;;;;35.41;32.28;99751.13;5548908;32;33283;-70
2022/08/14 08:33:52;;;;;;;14.02;3.95;;;;;;;34.76;32.66;99741.19;5548968;32;33111;-70
2022/08/14 08:36:57;;;;;;;6.68;3.87;;;;;;;33.54;34.77;99743.50;5549540;32;34896;-70
2022/08/14 08:40:03;;;;;;;6.05;3.85;;;;;;;34.40;33.48;99739.16;5549668;32;34572;-69
2022/08/14 08:43:20;;;;;;;5.05;3.83;;;;;;;35.27;32.08;99734.16;5549544;32;34451;-68
2022/08/14 08:46:23;;;;;;;4.53;3.92;;;;;;;33.65;33.78;99732.84;5549352;32;33953;-71
2022/08/14 08:49:41;;;;;;;6.90;3.75;;;;;;;35.66;30.99;99736.13;5551201;32;33871;-70
2022/08/14 08:53:07;;;;;;;5.00;3.85;;;;;;;35.10;31.35;99735.16;5551861;32;33921;-70
2022/08/14 08:56:11;;;;;;;5.82;3.50;;;;;;;34.17;32.21;99733.22;5550994;32;33005;-70
2022/08/14 08:59:31;;;;;;;5.35;3.90;;;;;;;35.02;31.64;99738.06;5551681;32;33965;-70
2022/08/14 09:02:51;;;;;;;4.97;4.10;;;;;;;36.51;29.02;99735.69;5552112;32;34026;-70
2022/08/14 09:06:01;;;;;;;4.15;3.62;;;;;;;36.76;28.10;99730.03;5551706;32;35381;-69
2022/08/14 09:09:19;;;;;;;5.43;3.58;;;;;;;36.71;28.30;99728.34;5551488;32;34449;-70
2022/08/14 09:12:22;;;;;;;6.05;3.95;;;;;;;37.25;27.84;99724.88;5550746;32;33946;-69
2022/08/14 09:15:26;;;;;;;5.35;4.12;;;;;;;36.28;28.96;99715.38;5551178;32;33815;-70
2022/08/14 09:18:45;;;;;;;5.12;3.90;;;;;;;36.53;28.49;99722.34;5551560;32;33992;-70
2022/08/14 09:21:49;;;;;;;5.87;3.67;;;;;;;36.25;29.15;99715.28;5551762;32;34763;-68
2022/08/14 09:24:56;;;;;;;4.45;3.30;;;;;;;37.36;27.80;99725.91;5551392;32;33870;-69
2022/08/14 09:27:59;;;;;;;4.00;3.50;;;;;;;37.81;26.50;99714.22;5550967;32;33913;-69
2022/08/14 09:31:05;;;;;;;5.40;3.80;;;;;;;38.13;26.39;99712.88;5551115;32;34132;-69
2022/08/14 09:34:19;;;;;;;5.68;3.70;;;;;;;38.83;25.57;99709.72;5550551;32;32853;-69
2022/08/14 09:37:51;;;;;;;5.18;3.70;;;;;;;39.94;24.19;99710.09;5538240;32;34201;-69
2022/08/14 09:41:12;;;;;;;8.38;4.10;;;;;;;40.65;22.40;99700.47;5550712;32;34846;-69
2022/08/14 09:45:02;;;;;;;4.15;3.40;;;;;;;39.96;23.16;99700.19;5551305;32;34612;-70
2022/08/14 09:48:19;;;;;;;5.37;4.10;;;;;;;39.05;24.25;99697.81;5551602;32;34322;-70
2022/08/14 09:51:35;;;;;;;6.68;3.83;;;;;;;38.69;24.64;99690.09;5551159;32;33961;-71
2022/08/14 09:54:57;;;;;;;7.35;3.45;;;;;;;38.73;24.75;99682.66;5551205;32;34077;-70
2022/08/14 09:58:18;;;;;;;5.37;3.92;;;;;;;39.14;23.34;99683.66;5551350;32;34005;-70
2022/08/14 10:01:35;;;;;;;5.85;3.60;;;;;;;39.80;22.33;99682.94;5550685;32;34011;-70
2022/08/14 10:04:39;;;;;;;3.80;3.20;;;;;;;39.69;22.57;99678.44;5550996;32;33950;-68
2022/08/14 10:07:52;;;;;;;4.80;3.65;;;;;;;38.95;22.57;99679.03;5550063;32;32848;-70
2022/08/14 10:11:13;;;;;;;3.87;3.47;;;;;;;40.14;21.77;99680.09;5550212;32;34197;-68
2022/08/14 10:14:20;;;;;;;4.47;3.17;;;;;;;39.84;20.70;99674.66;5549965;32;34258;-66
2022/08/14 10:17:37;;;;;;;3.87;3.12;;;;;;;39.46;20.85;99675.75;5550280;32;33249;-68
2022/08/14 10:20:51;;;;;;;8.02;3.12;;;;;;;38.16;21.97;99670.59;5551273;32;34370;-68
2022/08/14 10:23:54;;;;;;;5.10;3.20;;;;;;;39.12;21.00;99670.16;5550294;32;32768;-68
2022/08/14 10:27:00;;;;;;;6.05;3.50;;;;;;;38.57;21.84;99676.44;5551032;32;34743;-70
2022/08/14 10:30:16;;;;;;;5.45;3.55;;;;;;;38.57;22.14;99668.94;5551239;32;34127;-70
2022/08/14 10:33:32;;;;;;;6.00;4.25;;;;;;;35.60;26.63;99659.44;5550934;32;34655;-70
2022/08/14 10:36:42;;;;;;;7.82;3.80;;;;;;;34.18;29.18;99659.72;5550414;32;33355;-70
2022/08/14 10:40:01;;;;;;;4.95;3.37;;;;;;;35.10;27.75;99659.94;5550045;32;34330;-68
2022/08/14 10:43:27;;;;;;;4.95;2.75;;;;;;;37.52;22.88;99651.91;5551009;32;34802;-69
2022/08/14 10:47:06;;;;;;;2.90;2.60;;;;;;;38.51;20.18;99656.56;5550615;32;34125;-69
2022/08/14 10:50:31;;;;;;;3.60;2.87;;;;;;;39.62;19.29;99662.47;5550281;32;33953;-70
2022/08/14 10:53:36;;;;;;;3.05;2.75;;;;;;;40.99;17.93;99664.91;5549717;32;32868;-69
2022/08/14 10:56:42;;;;;;;4.37;2.83;;;;;;;42.41;16.14;99649.44;5549798;32;33176;-70
2022/08/14 10:59:54;;;;;;;3.40;3.08;;;;;;;42.48;16.03;99657.00;5536876;32;33286;-70
2022/08/14 11:03:08;;;;;;;4.53;3.17;;;;;;;41.97;16.79;99651.81;5551025;32;34519;-69
2022/08/14 11:06:21;;;;;;;3.55;2.92;;;;;;;41.26;17.30;99651.53;5549947;32;34075;-69
2022/08/14 11:09:26;;;;;;;3.35;3.05;;;;;;;41.39;16.89;99652.81;5550936;32;34619;-70
2022/08/14 11:12:47;;;;;;;2.80;2.50;;;;;;;42.87;15.67;99641.03;5548877;32;32847;-69
2022/08/14 11:15:51;;;;;;;3.53;2.80;;;;;;;42.59;15.83;99643.06;5537114;32;32467;-70
2022/08/14 11:18:55;;;;;;;8.15;2.60;;;;;;;43.52;15.37;99641.63;5550061;32;31713;-70
2022/08/14 11:22:02;;;;;;;2.97;2.72;;;;;;;43.65;14.67;99635.16;5550815;32;33907;-70
2022/08/14 11:25:12;;;;;;;3.58;2.72;;;;;;;42.53;15.48;99622.34;5549821;32;34542;-71
2022/08/14 11:28:21;;;;;;;5.57;2.70;;;;;;;44.17;14.54;99636.00;5550690;32;34105;-69
2022/08/14 11:31:45;;;;;;;5.57;2.78;;;;;;;44.82;14.08;99622.25;5549510;32;34034;-69
2022/08/14 11:34:53;;;;;;;3.83;2.90;;;;;;;44.06;13.81;99623.31;5550413;32;34531;-70
2022/08/14 11:38:02;;;;;;;3.03;2.40;;;;;;;44.52;13.00;99620.94;5550407;32;34035;-69
2022/08/14 11:41:07;;;;;;;2.97;2.65;;;;;;;45.47;12.94;99609.84;5549591;32;32351;-68
2022/08/14 11:44:13;;;;;;;2.95;2.40;;;;;;;42.41;15.11;99604.06;5549460;32;34030;-71
2022/08/14 11:47:37;;;;;;;3.30;2.58;;;;;;;43.42;14.38;99598.56;5550327;32;34375;-71
2022/08/14 11:51:00;;;;;;;3.92;2.58;;;;;;;44.23;13.71;99594.41;5549401;32;34018;-71
2022/08/14 11:54:05;;;;;;;2.67;2.47;;;;;;;44.31;13.72;99589.56;5549754;32;32880;-71
2022/08/14 11:57:14;;;;;;;3.45;2.70;;;;;;;44.52;13.67;99584.56;5549619;32;32751;-71
2022/08/14 12:00:21;;;;;;;4.50;2.78;;;;;;;45.66;13.31;99569.13;5550312;32;34402;-71
2022/08/14 12:03:41;;;;;;;3.00;2.70;;;;;;;45.25;13.64;99577.72;5550235;32;33929;-71
2022/08/14 12:06:54;;;;;;;2.70;2.40;;;;;;;45.03;14.09;99574.41;5550219;32;34130;-71
2022/08/14 12:09:58;;;;;;;3.87;2.70;;;;;;;46.01;14.23;99565.78;5549650;32;32448;-70
2022/08/14 12:13:15;;;;;;;3.00;2.60;;;;;;;44.01;14.91;99568.63;5550138;32;34607;-71
2022/08/14 12:16:20;;;;;;;2.87;2.60;;;;;;;47.44;12.27;99562.59;5549207;32;34050;-70
2022/08/14 12:19:25;;;;;;;3.03;2.67;;;;;;;46.83;12.85;99565.09;5549378;32;33900;-71
2022/08/14 12:22:32;;;;;;;2.60;2.40;;;;;;;47.42;12.29;99558.63;5549067;32;34157;-70
2022/08/14 12:25:35;;;;;;;3.60;2.80;;;;;;;46.26;12.66;99549.34;5548872;32;32815;-70
2022/08/14 12:28:39;;;;;;;3.20;2.80;;;;;;;46.08;13.01;99556.47;5549079;32;32405;-70
2022/08/14 12:32:05;;;;;;;3.15;2.80;;;;;;;44.81;14.23;99553.47;5548979;32;34387;-69
2022/08/14 12:35:14;;;;;;;4.00;3.12;;;;;;;47.50;12.16;99551.59;5548710;32;33382;-71
2022/08/14 12:38:17;;;;;;;3.37;2.95;;;;;;;47.55;12.26;99545.47;5549339;32;32715;-71
2022/08/14 12:41:25;;;;;;;3.05;2.47;;;;;;;47.59;12.66;99536.97;5549169;32;32663;-70
2022/08/14 12:44:42;;;;;;;4.43;2.60;;;;;;;48.75;10.87;99541.56;5549129;32;33281;-68
2022/08/14 12:47:45;;;;;;;5.70;3.00;;;;;;;47.80;11.75;99544.88;5549509;32;34612;-69
2022/08/14 12:50:53;;;;;;;4.32;2.80;;;;;;;46.01;13.76;99536.94;5549662;32;33920;-68
2022/08/14 12:53:58;;;;;;;3.92;3.03;;;;;;;44.84;14.60;99525.44;5549451;32;35426;-69
2022/08/14 12:57:04;;;;;;;3.90;2.67;;;;;;;43.52;15.35;99524.31;5549512;32;33809;-71
2022/08/14 13:00:22;;;;;;;4.28;2.90;;;;;;;44.52;14.76;99527.81;5549253;32;34053;-70
2022/08/14 13:03:27;;;;;;;3.67;2.72;;;;;;;46.98;12.77;99515.84;5549069;32;33988;-70
2022/08/14 13:06:32;;;;;;;5.65;2.53;;;;;;;48.56;11.17;99515.13;5548338;32;32693;-67
2022/08/14 13:09:35;;;;;;;5.35;3.33;;;;;;;48.81;10.82;99522.06;5548388;32;33462;-70
2022/08/14 13:12:41;;;;;;;4.20;2.70;;;;;;;47.66;11.97;99515.09;5549256;32;33895;-70
2022/08/14 13:16:05;;;;;;;3.30;2.80;;;;;;;48.72;10.85;99517.09;5548839;32;34016;-69
2022/08/14 13:19:24;;;;;;;2.90;2.42;;;;;;;47.92;11.67;99514.03;5548467;32;32118;-69
2022/08/14 13:22:31;;;;;;;3.35;2.90;;;;;;;46.72;12.48;99513.22;5548335;32;33037;-70
2022/08/14 13:25:42;;;;;;;3.78;2.70;;;;;;;44.43;13.90;99500.34;5548792;32;35530;-69
2022/08/14 13:29:01;;;;;;;4.65;3.08;;;;;;;38.77;18.70;99494.16;5548421;32;34201;-68
2022/08/14 13:32:08;;;;;;;;;;;;;;;35.92;21.36;99490.00;5549022;32;33402;-69
2022/08/14 13:35:14;;;;;;;4.62;3.30;;;;;;;34.52;22.93;99490.47;5549654;32;34232;-69
2022/08/14 13:38:24;;;;;;;5.65;3.22;;;;;;;33.83;24.56;99485.91;5551611;32;33994;-70
2022/08/14 13:41:32;;;;;;;4.12;3.35;;;;;;;33.92;25.18;99479.16;5551603;32;33931;-68
2022/08/14 13:44:39;;;;;;;4.45;3.53;;;;;;;32.98;24.96;99478.22;5551411;32;34080;-70
2022/08/14 13:47:44;;;;;;;5.20;3.55;;;;;;;32.64;25.84;99476.59;5551332;32;34624;-70
2022/08/14 13:50:54;;;;;;;5.22;3.50;;;;;;;32.54;26.21;99476.16;5550840;32;32344;-70
2022/08/14 13:53:58;;;;;;;4.87;3.50;;;;;;;32.41;26.65;99472.56;5551447;32;34332;-69
2022/08/14 13:57:14;;;;;;;4.75;3.70;;;;;;;32.73;26.07;99469.06;5550677;32;33514;-70
2022/08/14 14:00:17;;;;;;;4.85;3.28;;;;;;;31.94;27.07;99469.13;5550795;32;32337;-70
2022/08/14 14:03:34;;;;;;;4.05;3.40;;;;;;;32.04;27.19;99465.19;5550839;32;33401;-70
2022/08/14 14:06:37;;;;;;;4.85;3.65;;;;;;;32.23;26.32;99452.66;5550883;32;33122;-68
2022/08/14 14:09:45;;;;;;;4.43;3.55;;;;;;;31.72;27.04;99450.19;5537550;32;33172;-69
2022/08/14 14:12:54;;;;;;;5.97;3.95;;;;;;;31.68;27.26;99449.22;5551306;32;33964;-70
2022/08/14 14:16:01;;;;;;;5.20;3.17;;;;;;;31.86;28.60;99450.75;5551120;32;34602;-70
2022/08/14 14:19:06;;;;;;;3.85;3.35;;;;;;;32.03;28.39;99442.44;5550090;32;32472;-70
2022/08/14 14:22:16;;;;;;;6.60;3.45;;;;;;;32.63;27.06;99441.22;5550461;32;32454;-69
2022/08/14 14:25:41;;;;;;;4.65;3.70;;;;;;;33.39;25.78;99449.84;5551324;32;34589;-69
2022/08/14 14:28:54;;;;;;;3.72;3.22;;;;;;;34.54;23.75;99446.81;5550838;32;35444;-70
2022/08/14 14:31:59;;;;;;;4.35;3.20;;;;;;;35.53;22.87;99444.06;5550741;32;34165;-70
2022/08/14 14:35:02;;;;;;;8.90;3.55;;;;;;;36.16;22.57;99442.84;5550688;32;35244;-70
2022/08/14 14:38:07;;;;;;;3.80;3.22;;;;;;;35.36;23.91;99442.44;5537369;32;32568;-70
2022/08/14 14:41:13;;;;;;;3.78;3.00;;;;;;;34.42;24.13;99436.66;5550915;32;33989;-70
2022/08/14 14:44:22;;;;;;;6.47;3.33;;;;;;;34.19;24.96;99428.09;5550878;32;34540;-70
2022/08/14 14:47:26;;;;;;;4.37;3.35;;;;;;;34.27;24.76;99432.69;5550573;32;33989;-70
2022/08/14 14:50:37;;;;;;;5.53;3.62;;;;;;;33.19;26.59;99434.25;5550787;32;33962;-70
2022/08/14 14:53:45;;;;;;;4.30;3.10;;;;;;;33.38;25.59;99431.75;5550035;32;34230;-69
2022/08/14 14:56:50;;;;;;;6.82;3.55;;;;;;;32.83;26.57;99414.84;5537559;32;32698;-69
2022/08/14 14:59:56;;;;;;;5.57;3.25;;;;;;;32.50;26.76;99421.13;5549947;32;32978;-70
2022/08/14 15:02:59;;;;;;;5.57;3.72;;;;;;;32.94;26.55;99411.34;5549868;32;33956;-70
2022/08/14 15:06:03;;;;;;;4.47;3.42;;;;;;;34.66;24.32;99413.72;5549891;32;32634;-70